Bei Facebook empfehlenBei Twitter postenGoogle plusPinterest

Das Wetter im Erzgebirge am 12.07.2016

Wetter und Klima am 12.07.2016 Holzhau im Erzgebirge (630m ü.NN)
Letzte gemessene Temperatur und Uhrzeit der Messung23:45:00 Uhr14.10 °C
Temperatur (Maximum / Höchstwert) und Uhrzeit der Messung14:30:00 Uhr24.90 °C
Temperatur (Minimum / Tiefstwert) und Uhrzeit der Messung23:45:0014.10 °C
Errechneter Absolutwert der Temperaturschwankungen zwischen Tmin und Tmax des Tages10.80 K
Errechnete Tagesmitteltemperatur18.31146 °C
Gesamt - Niederschlag des Tages (in flüssiger Form)0.00 Liter / m²
Luftdruck (Maximum / Höchstwert) und Zeitpunkt der Messung01:00:00 Uhr1011.00 hPa
Luftdruck (Minimum / Tiefstwert) und Zeitpunkt der Messung04:00:00 Uhr1010.00 hPa
Errechneter Absolutwert der Luftdruckschwankungen des Tages1.00 hPa
Höchste gemessene Windgeschwindigkeit und Uhrzeit der Messung23:45:00 Uhr0.00 km/h
Errechnete Windhäufigkeit in Relation zu den Messwerten des Tages0.00000 %
Niedrigste Windkühle (Windchill) und Zeitpunkt der Messung23:45:00 Uhr14.10 °C
Taupunkt (Maximum / Höchstwert) und Uhrzeit der Messung10:15:00 Uhr18.10 °C
Taupunkt (Minimum / Tiefstwert) und Uhrzeit der Messung23:45:0011.80 °C
Anzahl der automatisch eingelesenen Messwerte 96

Detaillierte Wetter- und Klima- Messwerte für den 12.07.2016 in Holzhau im Erzgebirge (630m ü.NN)
ZeitTemperaturLuftdruckRel. LuftfeuchteWindWindrichtungWindchillTaupunktNiederschlag l/m²
23:45:0014.10 °C1010.40 hPa86.00 %11.80 °C 
23:30:0014.40 °C1010.50 hPa86.00 %12.10 °C 
23:15:0014.60 °C1010.50 hPa86.00 %12.30 °C 
23:00:0014.90 °C1010.60 hPa86.00 %12.60 °C 
22:45:0014.90 °C1010.70 hPa85.00 %12.40 °C 
22:30:0014.90 °C1010.50 hPa85.00 %12.40 °C 
22:15:0015.10 °C1010.30 hPa85.00 %12.60 °C 
22:00:0015.30 °C1010.50 hPa84.00 %12.60 °C 
21:45:0015.60 °C1010.40 hPa83.00 %12.70 °C 
21:30:0015.80 °C1010.50 hPa81.00 %12.50 °C 
21:15:0015.90 °C1010.40 hPa81.00 %12.60 °C 
21:00:0016.10 °C1010.50 hPa80.00 %12.70 °C 
20:45:0016.30 °C1010.50 hPa79.00 %12.70 °C 
20:30:0016.60 °C1010.50 hPa77.00 %12.60 °C 
20:15:0016.90 °C1010.30 hPa76.00 %12.60 °C 
20:00:0017.20 °C1010.70 hPa73.00 %12.30 °C 
19:45:0017.70 °C1010.90 hPa72.00 %12.60 °C 
19:30:0018.20 °C1010.90 hPa70.00 %12.60 °C 
19:15:0018.50 °C1010.60 hPa69.00 %12.70 °C 
19:00:0019.10 °C1010.60 hPa67.00 %12.80 °C 
18:45:0019.60 °C1010.70 hPa67.00 %13.30 °C 
18:30:0019.90 °C1010.60 hPa66.00 %13.40 °C 
18:15:0020.10 °C1010.60 hPa65.00 %13.30 °C 
18:00:0020.60 °C1010.40 hPa64.00 %13.60 °C 
17:45:0021.20 °C1010.40 hPa63.00 %13.90 °C 
17:30:0021.80 °C1010.10 hPa60.00 %13.70 °C 
17:15:0022.10 °C1010.30 hPa59.00 %13.70 °C 
17:00:0022.90 °C1010.50 hPa59.00 %14.50 °C 
16:45:0023.10 °C1010.50 hPa58.00 %14.40 °C 
16:30:0023.80 °C1010.60 hPa56.00 %14.50 °C 
16:15:0024.20 °C1010.70 hPa55.00 %14.60 °C 
16:00:0024.40 °C1010.70 hPa55.00 %14.80 °C 
15:45:0023.90 °C1010.80 hPa57.00 %14.90 °C 
15:30:0023.40 °C1010.80 hPa55.00 %13.80 °C 
15:15:0023.40 °C1010.90 hPa56.00 %14.10 °C 
15:00:0023.40 °C1010.80 hPa56.00 %14.10 °C 
14:45:0024.60 °C1010.80 hPa55.00 %15.00 °C 
14:30:0024.90 °C1010.70 hPa57.00 %15.80 °C 
14:15:0023.90 °C1010.60 hPa58.00 %15.10 °C 
14:00:0024.60 °C1010.80 hPa59.00 %16.10 °C 
13:45:0023.60 °C1010.60 hPa61.00 %15.60 °C 
13:30:0023.40 °C1010.90 hPa62.00 %15.70 °C 
13:15:0023.00 °C1010.80 hPa62.00 %15.30 °C 
13:00:0023.40 °C1010.90 hPa61.00 %15.50 °C 
12:45:0023.60 °C1010.70 hPa61.00 %15.60 °C 
12:30:0023.40 °C1010.70 hPa63.00 %16.00 °C 
12:15:0023.40 °C1010.90 hPa65.00 %16.40 °C 
12:00:0022.60 °C1010.70 hPa67.00 %16.20 °C 
11:45:0021.40 °C1010.90 hPa71.00 %15.90 °C 
11:30:0021.30 °C1010.80 hPa73.00 %16.30 °C 
11:15:0020.60 °C1010.90 hPa74.00 %15.80 °C 
11:00:0021.10 °C1010.80 hPa75.00 %16.50 °C 
10:45:0021.00 °C1010.70 hPa77.00 %16.80 °C 
10:30:0021.10 °C1010.60 hPa80.00 %17.50 °C 
10:15:0020.90 °C1010.70 hPa84.00 %18.10 °C 
10:00:0019.80 °C1010.80 hPa88.00 %17.80 °C 
09:45:0018.90 °C1010.70 hPa89.00 %17.00 °C 
09:30:0019.10 °C1010.80 hPa92.00 %17.80 °C 
09:15:0019.10 °C1010.70 hPa93.00 %17.90 °C 
09:00:0017.90 °C1010.80 hPa95.00 %17.10 °C 
08:45:0017.40 °C1010.60 hPa95.00 %16.60 °C 
08:30:0017.00 °C1010.60 hPa95.00 %16.20 °C 
08:15:0016.40 °C1010.50 hPa95.00 %15.60 °C 
08:00:0016.20 °C1010.60 hPa95.00 %15.40 °C 
07:45:0015.90 °C1010.80 hPa95.00 %15.10 °C 
07:30:0015.60 °C1010.90 hPa95.00 %14.80 °C 
07:15:0015.30 °C1010.80 hPa95.00 %14.50 °C 
07:00:0015.00 °C1010.60 hPa94.00 %14.00 °C 
06:45:0014.90 °C1010.60 hPa94.00 %13.90 °C 
06:30:0014.90 °C1010.30 hPa94.00 %13.90 °C 
06:15:0014.90 °C1010.40 hPa94.00 %13.90 °C 
06:00:0014.90 °C1010.30 hPa94.00 %13.90 °C 
05:45:0014.70 °C1010.30 hPa94.00 %13.70 °C 
05:30:0014.60 °C1010.30 hPa94.00 %13.60 °C 
05:15:0014.60 °C1010.30 hPa94.00 %13.60 °C 
05:00:0014.70 °C1010.40 hPa94.00 %13.70 °C 
04:45:0014.80 °C1010.40 hPa94.00 %13.80 °C 
04:30:0014.80 °C1010.50 hPa94.00 %13.80 °C 
04:15:0014.80 °C1010.20 hPa93.00 %13.70 °C 
04:00:0014.90 °C1010.00 hPa93.00 %13.80 °C 
03:45:0014.90 °C1010.20 hPa93.00 %13.80 °C 
03:30:0015.20 °C1010.30 hPa93.00 %14.10 °C 
03:15:0015.40 °C1010.50 hPa93.00 %14.30 °C 
03:00:0015.50 °C1010.50 hPa93.00 %14.40 °C 
02:45:0015.50 °C1010.60 hPa93.00 %14.40 °C 
02:30:0015.60 °C1010.50 hPa93.00 %14.50 °C 
02:15:0015.60 °C1010.80 hPa93.00 %14.50 °C 
02:00:0015.30 °C1010.70 hPa92.00 %14.00 °C 
01:45:0015.40 °C1010.70 hPa92.00 %14.10 °C 
01:30:0015.40 °C1010.60 hPa92.00 %14.10 °C 
01:15:0015.10 °C1010.80 hPa92.00 %13.80 °C 
01:00:0015.10 °C1011.00 hPa92.00 %13.80 °C 
00:45:0015.20 °C1010.60 hPa92.00 %13.90 °C 
00:30:0015.30 °C1010.70 hPa92.00 %14.00 °C 
00:15:0015.30 °C1010.60 hPa91.00 %13.80 °C 
00:00:0015.30 °C1010.50 hPa91.00 %13.80 °C 

Permanenter Link zu dieser Seite: Wetter im Erzgebirge am 12.07.2016
Performance-Info: Die Erstellung der Seite / Statistik(en) / Tabelle(n) erforderte 5 Datenbankserver-Abfrage(n) und dauerte 103 Millisekunden. (Dieser Messwert ist von der Gesamt-Auslastung des Servers abhängig.)
Erzgebirge - Wetter | Erzgebirge - Wetter (Mobilgeräte) | Komplette Klimadatenbank